Terminal Aerodrome Forecast
Issued by NWS

Home | Current Version | Previous Version | Text Only | Print | Product List | Glossary On
Versions: 1 2 3 4 5 6 7 8 9 10 11 12 13 14 15
606
FTUS42 KJAX 301720
TAFVQQ
TAF
KVQQ 301720Z 3018/3118 17007KT P6SM BKN060
     FM302200 17009KT P6SM VCSH BKN060
     FM310200 18003KT P6SM SCT060 BKN250
     FM310900 20005KT P6SM VCSH OVC050
     FM311100 21006KT P6SM VCTS OVC050CB=

USA.gov is the U.S. government's official web portal to all federal, state and local government web resources and services.